<?xml version="1.0" encoding="UTF-8" standalone="no"?>
<gpx version="1.1" creator="Trailforks.com" xmlns="http://www.topografix.com/GPX/1/1" xmlns:xsi="http://www.w3.org/2001/XMLSchema-instance" xsi:schemaLocation="http://www.topografix.com/GPX/1/1 http://www.topografix.com/GPX/1/1/gpx.xsd">
<metadata>
<name>Rinkebyskogen MTB Trailforks Trail</name>
<link href="https://www.trailforks.com/">
<text>Trailforks</text>
</link>
</metadata>
<trk>
<name>
Rinkebyskogen MTB
</name>
<trkseg>
<trkpt lat="59.41623" lon="18.02054">
<ele>42</ele>
<time>2024-09-10T01:21:19-07:00</time>
</trkpt>
<trkpt lat="59.41623" lon="18.02082">
<ele>42</ele>
<time>2024-09-10T01:21:20-07:00</time>
</trkpt>
<trkpt lat="59.41621" lon="18.02124">
<ele>40</ele>
<time>2024-09-10T01:21:21-07:00</time>
</trkpt>
<trkpt lat="59.41618" lon="18.02162">
<ele>40</ele>
<time>2024-09-10T01:21:22-07:00</time>
</trkpt>
<trkpt lat="59.41621" lon="18.02192">
<ele>40</ele>
<time>2024-09-10T01:21:23-07:00</time>
</trkpt>
<trkpt lat="59.41627" lon="18.02233">
<ele>45</ele>
<time>2024-09-10T01:21:24-07:00</time>
</trkpt>
<trkpt lat="59.41628" lon="18.02253">
<ele>45</ele>
<time>2024-09-10T01:21:25-07:00</time>
</trkpt>
<trkpt lat="59.41627" lon="18.02278">
<ele>45</ele>
<time>2024-09-10T01:21:26-07:00</time>
</trkpt>
<trkpt lat="59.41624" lon="18.02298">
<ele>40</ele>
<time>2024-09-10T01:21:27-07:00</time>
</trkpt>
<trkpt lat="59.41618" lon="18.02338">
<ele>40</ele>
<time>2024-09-10T01:21:28-07:00</time>
</trkpt>
<trkpt lat="59.41619" lon="18.0236">
<ele>40</ele>
<time>2024-09-10T01:21:29-07:00</time>
</trkpt>
<trkpt lat="59.41622" lon="18.02379">
<ele>41</ele>
<time>2024-09-10T01:21:30-07:00</time>
</trkpt>
<trkpt lat="59.4163" lon="18.02398">
<ele>47</ele>
<time>2024-09-10T01:21:31-07:00</time>
</trkpt>
<trkpt lat="59.41635" lon="18.02418">
<ele>46</ele>
<time>2024-09-10T01:21:32-07:00</time>
</trkpt>
<trkpt lat="59.4164" lon="18.02444">
<ele>46</ele>
<time>2024-09-10T01:21:33-07:00</time>
</trkpt>
<trkpt lat="59.41639" lon="18.02491">
<ele>46</ele>
<time>2024-09-10T01:21:34-07:00</time>
</trkpt>
<trkpt lat="59.41641" lon="18.02531">
<ele>47</ele>
<time>2024-09-10T01:21:35-07:00</time>
</trkpt>
<trkpt lat="59.41638" lon="18.02564">
<ele>47</ele>
<time>2024-09-10T01:21:36-07:00</time>
</trkpt>
<trkpt lat="59.41633" lon="18.02584">
<ele>47</ele>
<time>2024-09-10T01:21:37-07:00</time>
</trkpt>
<trkpt lat="59.41627" lon="18.02603">
<ele>47</ele>
<time>2024-09-10T01:21:38-07:00</time>
</trkpt>
<trkpt lat="59.41623" lon="18.02622">
<ele>44</ele>
<time>2024-09-10T01:21:39-07:00</time>
</trkpt>
<trkpt lat="59.41625" lon="18.02643">
<ele>48</ele>
<time>2024-09-10T01:21:40-07:00</time>
</trkpt>
<trkpt lat="59.41634" lon="18.02671">
<ele>48</ele>
<time>2024-09-10T01:21:41-07:00</time>
</trkpt>
<trkpt lat="59.41637" lon="18.02695">
<ele>50</ele>
<time>2024-09-10T01:21:42-07:00</time>
</trkpt>
<trkpt lat="59.41634" lon="18.0271">
<ele>50</ele>
<time>2024-09-10T01:21:43-07:00</time>
</trkpt>
<trkpt lat="59.41625" lon="18.02722">
<ele>50</ele>
<time>2024-09-10T01:21:44-07:00</time>
</trkpt>
<trkpt lat="59.41612" lon="18.0273">
<ele>47</ele>
<time>2024-09-10T01:21:45-07:00</time>
</trkpt>
<trkpt lat="59.41603" lon="18.02747">
<ele>47</ele>
<time>2024-09-10T01:21:46-07:00</time>
</trkpt>
<trkpt lat="59.4159" lon="18.02763">
<ele>49</ele>
<time>2024-09-10T01:21:47-07:00</time>
</trkpt>
<trkpt lat="59.41577" lon="18.02772">
<ele>49</ele>
<time>2024-09-10T01:21:48-07:00</time>
</trkpt>
<trkpt lat="59.4156" lon="18.0278">
<ele>44</ele>
<time>2024-09-10T01:21:49-07:00</time>
</trkpt>
<trkpt lat="59.41548" lon="18.02782">
<ele>44</ele>
<time>2024-09-10T01:21:50-07:00</time>
</trkpt>
<trkpt lat="59.4154" lon="18.02789">
<ele>42</ele>
<time>2024-09-10T01:21:51-07:00</time>
</trkpt>
<trkpt lat="59.41538" lon="18.02801">
<ele>42</ele>
<time>2024-09-10T01:21:52-07:00</time>
</trkpt>
<trkpt lat="59.4154" lon="18.02821">
<ele>47</ele>
<time>2024-09-10T01:21:53-07:00</time>
</trkpt>
<trkpt lat="59.41545" lon="18.02838">
<ele>49</ele>
<time>2024-09-10T01:21:54-07:00</time>
</trkpt>
<trkpt lat="59.4155" lon="18.02856">
<ele>49</ele>
<time>2024-09-10T01:21:55-07:00</time>
</trkpt>
<trkpt lat="59.41557" lon="18.02872">
<ele>52</ele>
<time>2024-09-10T01:21:56-07:00</time>
</trkpt>
<trkpt lat="59.41565" lon="18.02885">
<ele>52</ele>
<time>2024-09-10T01:21:57-07:00</time>
</trkpt>
<trkpt lat="59.41577" lon="18.02907">
<ele>53</ele>
<time>2024-09-10T01:21:58-07:00</time>
</trkpt>
<trkpt lat="59.41589" lon="18.0292">
<ele>53</ele>
<time>2024-09-10T01:21:59-07:00</time>
</trkpt>
<trkpt lat="59.41599" lon="18.02935">
<ele>55</ele>
<time>2024-09-10T01:22:00-07:00</time>
</trkpt>
<trkpt lat="59.41612" lon="18.02956">
<ele>55</ele>
<time>2024-09-10T01:22:01-07:00</time>
</trkpt>
<trkpt lat="59.41615" lon="18.0298">
<ele>56</ele>
<time>2024-09-10T01:22:02-07:00</time>
</trkpt>
<trkpt lat="59.41621" lon="18.03002">
<ele>56</ele>
<time>2024-09-10T01:22:03-07:00</time>
</trkpt>
<trkpt lat="59.41626" lon="18.03032">
<ele>57</ele>
<time>2024-09-10T01:22:04-07:00</time>
</trkpt>
<trkpt lat="59.41627" lon="18.03052">
<ele>57</ele>
<time>2024-09-10T01:22:05-07:00</time>
</trkpt>
<trkpt lat="59.41627" lon="18.03071">
<ele>57</ele>
<time>2024-09-10T01:22:06-07:00</time>
</trkpt>
<trkpt lat="59.41624" lon="18.03089">
<ele>55</ele>
<time>2024-09-10T01:22:07-07:00</time>
</trkpt>
<trkpt lat="59.41616" lon="18.03099">
<ele>55</ele>
<time>2024-09-10T01:22:08-07:00</time>
</trkpt>
<trkpt lat="59.41605" lon="18.03103">
<ele>55</ele>
<time>2024-09-10T01:22:09-07:00</time>
</trkpt>
<trkpt lat="59.41595" lon="18.03111">
<ele>54</ele>
<time>2024-09-10T01:22:10-07:00</time>
</trkpt>
<trkpt lat="59.41591" lon="18.03119">
<ele>54</ele>
<time>2024-09-10T01:22:11-07:00</time>
</trkpt>
<trkpt lat="59.41594" lon="18.03129">
<ele>54</ele>
<time>2024-09-10T01:22:12-07:00</time>
</trkpt>
<trkpt lat="59.416" lon="18.03129">
<ele>55</ele>
<time>2024-09-10T01:22:13-07:00</time>
</trkpt>
<trkpt lat="59.41616" lon="18.03119">
<ele>55</ele>
<time>2024-09-10T01:22:14-07:00</time>
</trkpt>
<trkpt lat="59.41621" lon="18.03119">
<ele>55</ele>
<time>2024-09-10T01:22:15-07:00</time>
</trkpt>
<trkpt lat="59.41624" lon="18.03122">
<ele>55</ele>
<time>2024-09-10T01:22:16-07:00</time>
</trkpt>
<trkpt lat="59.41626" lon="18.03134">
<ele>55</ele>
<time>2024-09-10T01:22:17-07:00</time>
</trkpt>
<trkpt lat="59.41625" lon="18.03151">
<ele>53</ele>
<time>2024-09-10T01:22:18-07:00</time>
</trkpt>
<trkpt lat="59.4163" lon="18.03173">
<ele>53</ele>
<time>2024-09-10T01:22:19-07:00</time>
</trkpt>
<trkpt lat="59.41646" lon="18.03204">
<ele>51</ele>
<time>2024-09-10T01:22:20-07:00</time>
</trkpt>
<trkpt lat="59.41663" lon="18.03218">
<ele>51</ele>
<time>2024-09-10T01:22:21-07:00</time>
</trkpt>
<trkpt lat="59.41684" lon="18.03227">
<ele>51</ele>
<time>2024-09-10T01:22:22-07:00</time>
</trkpt>
<trkpt lat="59.41694" lon="18.03228">
<ele>51</ele>
<time>2024-09-10T01:22:23-07:00</time>
</trkpt>
<trkpt lat="59.41701" lon="18.03237">
<ele>51</ele>
<time>2024-09-10T01:22:24-07:00</time>
</trkpt>
<trkpt lat="59.41704" lon="18.03249">
<ele>51</ele>
<time>2024-09-10T01:22:25-07:00</time>
</trkpt>
<trkpt lat="59.41706" lon="18.03267">
<ele>51</ele>
<time>2024-09-10T01:22:26-07:00</time>
</trkpt>
<trkpt lat="59.4171" lon="18.03279">
<ele>51</ele>
<time>2024-09-10T01:22:27-07:00</time>
</trkpt>
<trkpt lat="59.41717" lon="18.03285">
<ele>51</ele>
<time>2024-09-10T01:22:28-07:00</time>
</trkpt>
<trkpt lat="59.4172" lon="18.03278">
<ele>51</ele>
<time>2024-09-10T01:22:29-07:00</time>
</trkpt>
<trkpt lat="59.41723" lon="18.03261">
<ele>51</ele>
<time>2024-09-10T01:22:30-07:00</time>
</trkpt>
<trkpt lat="59.41729" lon="18.03249">
<ele>51</ele>
<time>2024-09-10T01:22:31-07:00</time>
</trkpt>
<trkpt lat="59.41735" lon="18.03247">
<ele>51</ele>
<time>2024-09-10T01:22:32-07:00</time>
</trkpt>
<trkpt lat="59.41744" lon="18.03253">
<ele>53</ele>
<time>2024-09-10T01:22:33-07:00</time>
</trkpt>
<trkpt lat="59.41751" lon="18.03265">
<ele>53</ele>
<time>2024-09-10T01:22:34-07:00</time>
</trkpt>
<trkpt lat="59.4176" lon="18.03296">
<ele>53</ele>
<time>2024-09-10T01:22:35-07:00</time>
</trkpt>
<trkpt lat="59.41766" lon="18.03312">
<ele>52</ele>
<time>2024-09-10T01:22:36-07:00</time>
</trkpt>
<trkpt lat="59.41774" lon="18.03322">
<ele>52</ele>
<time>2024-09-10T01:22:37-07:00</time>
</trkpt>
<trkpt lat="59.41785" lon="18.03323">
<ele>52</ele>
<time>2024-09-10T01:22:38-07:00</time>
</trkpt>
<trkpt lat="59.41795" lon="18.03316">
<ele>53</ele>
<time>2024-09-10T01:22:39-07:00</time>
</trkpt>
<trkpt lat="59.41804" lon="18.03315">
<ele>53</ele>
<time>2024-09-10T01:22:40-07:00</time>
</trkpt>
<trkpt lat="59.4181" lon="18.03319">
<ele>53</ele>
<time>2024-09-10T01:22:41-07:00</time>
</trkpt>
<trkpt lat="59.41818" lon="18.03337">
<ele>53</ele>
<time>2024-09-10T01:22:42-07:00</time>
</trkpt>
<trkpt lat="59.41825" lon="18.03339">
<ele>56</ele>
<time>2024-09-10T01:22:43-07:00</time>
</trkpt>
<trkpt lat="59.4184" lon="18.03333">
<ele>56</ele>
<time>2024-09-10T01:22:44-07:00</time>
</trkpt>
<trkpt lat="59.41845" lon="18.03335">
<ele>56</ele>
<time>2024-09-10T01:22:45-07:00</time>
</trkpt>
<trkpt lat="59.41855" lon="18.03352">
<ele>57</ele>
<time>2024-09-10T01:22:46-07:00</time>
</trkpt>
<trkpt lat="59.41869" lon="18.0337">
<ele>52</ele>
<time>2024-09-10T01:22:47-07:00</time>
</trkpt>
<trkpt lat="59.4189" lon="18.03386">
<ele>51</ele>
<time>2024-09-10T01:22:48-07:00</time>
</trkpt>
<trkpt lat="59.419" lon="18.03386">
<ele>51</ele>
<time>2024-09-10T01:22:49-07:00</time>
</trkpt>
<trkpt lat="59.41906" lon="18.03373">
<ele>51</ele>
<time>2024-09-10T01:22:50-07:00</time>
</trkpt>
<trkpt lat="59.41914" lon="18.03355">
<ele>54</ele>
<time>2024-09-10T01:22:51-07:00</time>
</trkpt>
<trkpt lat="59.41925" lon="18.03329">
<ele>54</ele>
<time>2024-09-10T01:22:52-07:00</time>
</trkpt>
<trkpt lat="59.41932" lon="18.03308">
<ele>54</ele>
<time>2024-09-10T01:22:53-07:00</time>
</trkpt>
<trkpt lat="59.41938" lon="18.03278">
<ele>56</ele>
<time>2024-09-10T01:22:54-07:00</time>
</trkpt>
<trkpt lat="59.41948" lon="18.03253">
<ele>56</ele>
<time>2024-09-10T01:22:55-07:00</time>
</trkpt>
<trkpt lat="59.4195" lon="18.03215">
<ele>58</ele>
<time>2024-09-10T01:22:56-07:00</time>
</trkpt>
<trkpt lat="59.41957" lon="18.03183">
<ele>59</ele>
<time>2024-09-10T01:22:57-07:00</time>
</trkpt>
<trkpt lat="59.41958" lon="18.03156">
<ele>59</ele>
<time>2024-09-10T01:22:58-07:00</time>
</trkpt>
<trkpt lat="59.41955" lon="18.03132">
<ele>57</ele>
<time>2024-09-10T01:22:59-07:00</time>
</trkpt>
<trkpt lat="59.41951" lon="18.0311">
<ele>57</ele>
<time>2024-09-10T01:23:00-07:00</time>
</trkpt>
<trkpt lat="59.41948" lon="18.03081">
<ele>56</ele>
<time>2024-09-10T01:23:01-07:00</time>
</trkpt>
<trkpt lat="59.4195" lon="18.03069">
<ele>56</ele>
<time>2024-09-10T01:23:02-07:00</time>
</trkpt>
<trkpt lat="59.41956" lon="18.03067">
<ele>56</ele>
<time>2024-09-10T01:23:03-07:00</time>
</trkpt>
<trkpt lat="59.41961" lon="18.03072">
<ele>56</ele>
<time>2024-09-10T01:23:04-07:00</time>
</trkpt>
<trkpt lat="59.4197" lon="18.03094">
<ele>57</ele>
<time>2024-09-10T01:23:05-07:00</time>
</trkpt>
<trkpt lat="59.41985" lon="18.03121">
<ele>57</ele>
<time>2024-09-10T01:23:06-07:00</time>
</trkpt>
<trkpt lat="59.41993" lon="18.03145">
<ele>55</ele>
<time>2024-09-10T01:23:07-07:00</time>
</trkpt>
<trkpt lat="59.42002" lon="18.0318">
<ele>55</ele>
<time>2024-09-10T01:23:08-07:00</time>
</trkpt>
<trkpt lat="59.42007" lon="18.03226">
<ele>54</ele>
<time>2024-09-10T01:23:09-07:00</time>
</trkpt>
<trkpt lat="59.42011" lon="18.03234">
<ele>54</ele>
<time>2024-09-10T01:23:10-07:00</time>
</trkpt>
<trkpt lat="59.42016" lon="18.03237">
<ele>52</ele>
<time>2024-09-10T01:23:11-07:00</time>
</trkpt>
<trkpt lat="59.42026" lon="18.03233">
<ele>52</ele>
<time>2024-09-10T01:23:12-07:00</time>
</trkpt>
<trkpt lat="59.42034" lon="18.03224">
<ele>52</ele>
<time>2024-09-10T01:23:13-07:00</time>
</trkpt>
<trkpt lat="59.42042" lon="18.0322">
<ele>50</ele>
<time>2024-09-10T01:23:14-07:00</time>
</trkpt>
<trkpt lat="59.42047" lon="18.03225">
<ele>50</ele>
<time>2024-09-10T01:23:15-07:00</time>
</trkpt>
<trkpt lat="59.42053" lon="18.0325">
<ele>50</ele>
<time>2024-09-10T01:23:16-07:00</time>
</trkpt>
<trkpt lat="59.42059" lon="18.03255">
<ele>49</ele>
<time>2024-09-10T01:23:17-07:00</time>
</trkpt>
<trkpt lat="59.42068" lon="18.03252">
<ele>49</ele>
<time>2024-09-10T01:23:18-07:00</time>
</trkpt>
<trkpt lat="59.42077" lon="18.03248">
<ele>50</ele>
<time>2024-09-10T01:23:19-07:00</time>
</trkpt>
<trkpt lat="59.42092" lon="18.0324">
<ele>50</ele>
<time>2024-09-10T01:23:20-07:00</time>
</trkpt>
<trkpt lat="59.421" lon="18.03243">
<ele>49</ele>
<time>2024-09-10T01:23:21-07:00</time>
</trkpt>
<trkpt lat="59.42108" lon="18.03256">
<ele>49</ele>
<time>2024-09-10T01:23:22-07:00</time>
</trkpt>
<trkpt lat="59.4212" lon="18.0327">
<ele>49</ele>
<time>2024-09-10T01:23:23-07:00</time>
</trkpt>
<trkpt lat="59.4213" lon="18.03279">
<ele>50</ele>
<time>2024-09-10T01:23:24-07:00</time>
</trkpt>
<trkpt lat="59.42139" lon="18.03288">
<ele>50</ele>
<time>2024-09-10T01:23:25-07:00</time>
</trkpt>
<trkpt lat="59.42145" lon="18.03302">
<ele>50</ele>
<time>2024-09-10T01:23:26-07:00</time>
</trkpt>
<trkpt lat="59.42153" lon="18.03319">
<ele>49</ele>
<time>2024-09-10T01:23:27-07:00</time>
</trkpt>
<trkpt lat="59.42154" lon="18.03334">
<ele>49</ele>
<time>2024-09-10T01:23:28-07:00</time>
</trkpt>
<trkpt lat="59.42152" lon="18.03352">
<ele>49</ele>
<time>2024-09-10T01:23:29-07:00</time>
</trkpt>
<trkpt lat="59.42153" lon="18.03362">
<ele>48</ele>
<time>2024-09-10T01:23:30-07:00</time>
</trkpt>
<trkpt lat="59.4216" lon="18.0337">
<ele>48</ele>
<time>2024-09-10T01:23:31-07:00</time>
</trkpt>
<trkpt lat="59.42169" lon="18.03373">
<ele>48</ele>
<time>2024-09-10T01:23:32-07:00</time>
</trkpt>
<trkpt lat="59.42176" lon="18.03381">
<ele>48</ele>
<time>2024-09-10T01:23:33-07:00</time>
</trkpt>
<trkpt lat="59.42176" lon="18.03395">
<ele>48</ele>
<time>2024-09-10T01:23:34-07:00</time>
</trkpt>
<trkpt lat="59.42179" lon="18.03407">
<ele>48</ele>
<time>2024-09-10T01:23:35-07:00</time>
</trkpt>
<trkpt lat="59.42189" lon="18.03429">
<ele>44</ele>
<time>2024-09-10T01:23:36-07:00</time>
</trkpt>
<trkpt lat="59.42196" lon="18.03451">
<ele>44</ele>
<time>2024-09-10T01:23:37-07:00</time>
</trkpt>
<trkpt lat="59.42202" lon="18.03475">
<ele>43</ele>
<time>2024-09-10T01:23:38-07:00</time>
</trkpt>
<trkpt lat="59.42211" lon="18.03489">
<ele>43</ele>
<time>2024-09-10T01:23:39-07:00</time>
</trkpt>
<trkpt lat="59.42221" lon="18.03494">
<ele>43</ele>
<time>2024-09-10T01:23:40-07:00</time>
</trkpt>
<trkpt lat="59.42226" lon="18.0349">
<ele>43</ele>
<time>2024-09-10T01:23:41-07:00</time>
</trkpt>
<trkpt lat="59.42236" lon="18.03475">
<ele>43</ele>
<time>2024-09-10T01:23:42-07:00</time>
</trkpt>
<trkpt lat="59.42246" lon="18.03475">
<ele>43</ele>
<time>2024-09-10T01:23:43-07:00</time>
</trkpt>
<trkpt lat="59.42256" lon="18.03466">
<ele>44</ele>
<time>2024-09-10T01:23:44-07:00</time>
</trkpt>
<trkpt lat="59.42261" lon="18.03451">
<ele>44</ele>
<time>2024-09-10T01:23:45-07:00</time>
</trkpt>
<trkpt lat="59.42264" lon="18.03426">
<ele>44</ele>
<time>2024-09-10T01:23:46-07:00</time>
</trkpt>
<trkpt lat="59.42271" lon="18.03397">
<ele>44</ele>
<time>2024-09-10T01:23:47-07:00</time>
</trkpt>
<trkpt lat="59.42273" lon="18.03359">
<ele>45</ele>
<time>2024-09-10T01:23:48-07:00</time>
</trkpt>
<trkpt lat="59.42279" lon="18.03326">
<ele>45</ele>
<time>2024-09-10T01:23:49-07:00</time>
</trkpt>
<trkpt lat="59.42281" lon="18.03287">
<ele>46</ele>
<time>2024-09-10T01:23:50-07:00</time>
</trkpt>
<trkpt lat="59.42288" lon="18.03259">
<ele>46</ele>
<time>2024-09-10T01:23:51-07:00</time>
</trkpt>
<trkpt lat="59.42301" lon="18.03225">
<ele>44</ele>
<time>2024-09-10T01:23:52-07:00</time>
</trkpt>
<trkpt lat="59.42309" lon="18.03209">
<ele>44</ele>
<time>2024-09-10T01:23:53-07:00</time>
</trkpt>
<trkpt lat="59.42316" lon="18.03191">
<ele>46</ele>
<time>2024-09-10T01:23:54-07:00</time>
</trkpt>
<trkpt lat="59.4232" lon="18.0317">
<ele>47</ele>
<time>2024-09-10T01:23:55-07:00</time>
</trkpt>
<trkpt lat="59.42321" lon="18.03132">
<ele>48</ele>
<time>2024-09-10T01:23:56-07:00</time>
</trkpt>
<trkpt lat="59.42326" lon="18.03099">
<ele>48</ele>
<time>2024-09-10T01:23:57-07:00</time>
</trkpt>
<trkpt lat="59.42332" lon="18.0307">
<ele>49</ele>
<time>2024-09-10T01:23:58-07:00</time>
</trkpt>
<trkpt lat="59.42335" lon="18.03053">
<ele>49</ele>
<time>2024-09-10T01:23:59-07:00</time>
</trkpt>
<trkpt lat="59.42335" lon="18.03043">
<ele>49</ele>
<time>2024-09-10T01:24:00-07:00</time>
</trkpt>
<trkpt lat="59.4233" lon="18.03022">
<ele>50</ele>
<time>2024-09-10T01:24:01-07:00</time>
</trkpt>
<trkpt lat="59.42328" lon="18.02997">
<ele>50</ele>
<time>2024-09-10T01:24:02-07:00</time>
</trkpt>
<trkpt lat="59.42329" lon="18.02973">
<ele>50</ele>
<time>2024-09-10T01:24:03-07:00</time>
</trkpt>
<trkpt lat="59.42338" lon="18.02948">
<ele>50</ele>
<time>2024-09-10T01:24:04-07:00</time>
</trkpt>
<trkpt lat="59.42341" lon="18.02922">
<ele>50</ele>
<time>2024-09-10T01:24:05-07:00</time>
</trkpt>
<trkpt lat="59.42344" lon="18.02899">
<ele>51</ele>
<time>2024-09-10T01:24:06-07:00</time>
</trkpt>
<trkpt lat="59.42346" lon="18.02873">
<ele>51</ele>
<time>2024-09-10T01:24:07-07:00</time>
</trkpt>
<trkpt lat="59.42348" lon="18.02849">
<ele>51</ele>
<time>2024-09-10T01:24:08-07:00</time>
</trkpt>
<trkpt lat="59.42356" lon="18.02812">
<ele>51</ele>
<time>2024-09-10T01:24:09-07:00</time>
</trkpt>
<trkpt lat="59.42359" lon="18.02778">
<ele>49</ele>
<time>2024-09-10T01:24:10-07:00</time>
</trkpt>
<trkpt lat="59.42364" lon="18.02749">
<ele>48</ele>
<time>2024-09-10T01:24:11-07:00</time>
</trkpt>
<trkpt lat="59.42371" lon="18.02724">
<ele>48</ele>
<time>2024-09-10T01:24:12-07:00</time>
</trkpt>
<trkpt lat="59.42373" lon="18.02703">
<ele>48</ele>
<time>2024-09-10T01:24:13-07:00</time>
</trkpt>
<trkpt lat="59.42369" lon="18.02685">
<ele>49</ele>
<time>2024-09-10T01:24:14-07:00</time>
</trkpt>
<trkpt lat="59.4236" lon="18.02673">
<ele>49</ele>
<time>2024-09-10T01:24:15-07:00</time>
</trkpt>
<trkpt lat="59.42353" lon="18.02667">
<ele>49</ele>
<time>2024-09-10T01:24:16-07:00</time>
</trkpt>
<trkpt lat="59.42334" lon="18.02656">
<ele>50</ele>
<time>2024-09-10T01:24:17-07:00</time>
</trkpt>
<trkpt lat="59.42318" lon="18.02653">
<ele>48</ele>
<time>2024-09-10T01:24:18-07:00</time>
</trkpt>
<trkpt lat="59.423" lon="18.02642">
<ele>48</ele>
<time>2024-09-10T01:24:19-07:00</time>
</trkpt>
<trkpt lat="59.42288" lon="18.02627">
<ele>48</ele>
<time>2024-09-10T01:24:20-07:00</time>
</trkpt>
<trkpt lat="59.42279" lon="18.02619">
<ele>48</ele>
<time>2024-09-10T01:24:21-07:00</time>
</trkpt>
<trkpt lat="59.42268" lon="18.02614">
<ele>48</ele>
<time>2024-09-10T01:24:22-07:00</time>
</trkpt>
<trkpt lat="59.4225" lon="18.02614">
<ele>47</ele>
<time>2024-09-10T01:24:23-07:00</time>
</trkpt>
<trkpt lat="59.42235" lon="18.02621">
<ele>46</ele>
<time>2024-09-10T01:24:24-07:00</time>
</trkpt>
<trkpt lat="59.42219" lon="18.02626">
<ele>46</ele>
<time>2024-09-10T01:24:25-07:00</time>
</trkpt>
<trkpt lat="59.42208" lon="18.02621">
<ele>45</ele>
<time>2024-09-10T01:24:26-07:00</time>
</trkpt>
<trkpt lat="59.42197" lon="18.02621">
<ele>45</ele>
<time>2024-09-10T01:24:27-07:00</time>
</trkpt>
<trkpt lat="59.42183" lon="18.02631">
<ele>45</ele>
<time>2024-09-10T01:24:28-07:00</time>
</trkpt>
<trkpt lat="59.42173" lon="18.02631">
<ele>44</ele>
<time>2024-09-10T01:24:29-07:00</time>
</trkpt>
<trkpt lat="59.42164" lon="18.02646">
<ele>47</ele>
<time>2024-09-10T01:24:30-07:00</time>
</trkpt>
<trkpt lat="59.42149" lon="18.02689">
<ele>47</ele>
<time>2024-09-10T01:24:31-07:00</time>
</trkpt>
<trkpt lat="59.42138" lon="18.02709">
<ele>49</ele>
<time>2024-09-10T01:24:32-07:00</time>
</trkpt>
<trkpt lat="59.42125" lon="18.02731">
<ele>49</ele>
<time>2024-09-10T01:24:33-07:00</time>
</trkpt>
<trkpt lat="59.42117" lon="18.02752">
<ele>52</ele>
<time>2024-09-10T01:24:34-07:00</time>
</trkpt>
<trkpt lat="59.42111" lon="18.02749">
<ele>50</ele>
<time>2024-09-10T01:24:35-07:00</time>
</trkpt>
<trkpt lat="59.42104" lon="18.02735">
<ele>50</ele>
<time>2024-09-10T01:24:36-07:00</time>
</trkpt>
<trkpt lat="59.42102" lon="18.02724">
<ele>50</ele>
<time>2024-09-10T01:24:37-07:00</time>
</trkpt>
<trkpt lat="59.42103" lon="18.02701">
<ele>50</ele>
<time>2024-09-10T01:24:38-07:00</time>
</trkpt>
<trkpt lat="59.421" lon="18.02694">
<ele>49</ele>
<time>2024-09-10T01:24:39-07:00</time>
</trkpt>
<trkpt lat="59.42086" lon="18.02684">
<ele>53</ele>
<time>2024-09-10T01:24:40-07:00</time>
</trkpt>
<trkpt lat="59.42075" lon="18.02677">
<ele>53</ele>
<time>2024-09-10T01:24:41-07:00</time>
</trkpt>
<trkpt lat="59.42064" lon="18.02656">
<ele>56</ele>
<time>2024-09-10T01:24:42-07:00</time>
</trkpt>
<trkpt lat="59.42057" lon="18.02643">
<ele>56</ele>
<time>2024-09-10T01:24:43-07:00</time>
</trkpt>
<trkpt lat="59.42047" lon="18.02635">
<ele>55</ele>
<time>2024-09-10T01:24:44-07:00</time>
</trkpt>
<trkpt lat="59.42041" lon="18.02634">
<ele>56</ele>
<time>2024-09-10T01:24:45-07:00</time>
</trkpt>
<trkpt lat="59.42036" lon="18.0263">
<ele>56</ele>
<time>2024-09-10T01:24:46-07:00</time>
</trkpt>
<trkpt lat="59.42034" lon="18.02618">
<ele>56</ele>
<time>2024-09-10T01:24:47-07:00</time>
</trkpt>
<trkpt lat="59.42037" lon="18.02602">
<ele>56</ele>
<time>2024-09-10T01:24:48-07:00</time>
</trkpt>
<trkpt lat="59.42043" lon="18.02595">
<ele>55</ele>
<time>2024-09-10T01:24:49-07:00</time>
</trkpt>
<trkpt lat="59.42058" lon="18.02578">
<ele>54</ele>
<time>2024-09-10T01:24:50-07:00</time>
</trkpt>
<trkpt lat="59.42064" lon="18.02563">
<ele>54</ele>
<time>2024-09-10T01:24:51-07:00</time>
</trkpt>
<trkpt lat="59.42066" lon="18.02546">
<ele>54</ele>
<time>2024-09-10T01:24:52-07:00</time>
</trkpt>
<trkpt lat="59.42069" lon="18.02528">
<ele>54</ele>
<time>2024-09-10T01:24:53-07:00</time>
</trkpt>
<trkpt lat="59.42074" lon="18.02514">
<ele>53</ele>
<time>2024-09-10T01:24:54-07:00</time>
</trkpt>
<trkpt lat="59.42077" lon="18.025">
<ele>53</ele>
<time>2024-09-10T01:24:55-07:00</time>
</trkpt>
<trkpt lat="59.42075" lon="18.02489">
<ele>53</ele>
<time>2024-09-10T01:24:56-07:00</time>
</trkpt>
<trkpt lat="59.42071" lon="18.02482">
<ele>53</ele>
<time>2024-09-10T01:24:57-07:00</time>
</trkpt>
<trkpt lat="59.42062" lon="18.02479">
<ele>53</ele>
<time>2024-09-10T01:24:58-07:00</time>
</trkpt>
<trkpt lat="59.42056" lon="18.02472">
<ele>53</ele>
<time>2024-09-10T01:24:59-07:00</time>
</trkpt>
<trkpt lat="59.42041" lon="18.0247">
<ele>54</ele>
<time>2024-09-10T01:25:00-07:00</time>
</trkpt>
<trkpt lat="59.42029" lon="18.02483">
<ele>54</ele>
<time>2024-09-10T01:25:01-07:00</time>
</trkpt>
<trkpt lat="59.42008" lon="18.02494">
<ele>55</ele>
<time>2024-09-10T01:25:02-07:00</time>
</trkpt>
<trkpt lat="59.41996" lon="18.02503">
<ele>55</ele>
<time>2024-09-10T01:25:03-07:00</time>
</trkpt>
<trkpt lat="59.41988" lon="18.0252">
<ele>55</ele>
<time>2024-09-10T01:25:04-07:00</time>
</trkpt>
<trkpt lat="59.41979" lon="18.02538">
<ele>56</ele>
<time>2024-09-10T01:25:05-07:00</time>
</trkpt>
<trkpt lat="59.41971" lon="18.0255">
<ele>56</ele>
<time>2024-09-10T01:25:06-07:00</time>
</trkpt>
<trkpt lat="59.41961" lon="18.02556">
<ele>56</ele>
<time>2024-09-10T01:25:07-07:00</time>
</trkpt>
<trkpt lat="59.41946" lon="18.02561">
<ele>57</ele>
<time>2024-09-10T01:25:08-07:00</time>
</trkpt>
<trkpt lat="59.41929" lon="18.02563">
<ele>58</ele>
<time>2024-09-10T01:25:09-07:00</time>
</trkpt>
<trkpt lat="59.41911" lon="18.02563">
<ele>58</ele>
<time>2024-09-10T01:25:10-07:00</time>
</trkpt>
<trkpt lat="59.41884" lon="18.02578">
<ele>57</ele>
<time>2024-09-10T01:25:11-07:00</time>
</trkpt>
<trkpt lat="59.41871" lon="18.02592">
<ele>56</ele>
<time>2024-09-10T01:25:12-07:00</time>
</trkpt>
<trkpt lat="59.41853" lon="18.02603">
<ele>56</ele>
<time>2024-09-10T01:25:13-07:00</time>
</trkpt>
<trkpt lat="59.41835" lon="18.0261">
<ele>56</ele>
<time>2024-09-10T01:25:14-07:00</time>
</trkpt>
<trkpt lat="59.41807" lon="18.02628">
<ele>57</ele>
<time>2024-09-10T01:25:15-07:00</time>
</trkpt>
<trkpt lat="59.41789" lon="18.02645">
<ele>57</ele>
<time>2024-09-10T01:25:16-07:00</time>
</trkpt>
<trkpt lat="59.41774" lon="18.02654">
<ele>57</ele>
<time>2024-09-10T01:25:17-07:00</time>
</trkpt>
<trkpt lat="59.41756" lon="18.02659">
<ele>57</ele>
<time>2024-09-10T01:25:18-07:00</time>
</trkpt>
<trkpt lat="59.41757" lon="18.02642">
<ele>57</ele>
<time>2024-09-10T01:25:19-07:00</time>
</trkpt>
<trkpt lat="59.41765" lon="18.02618">
<ele>57</ele>
<time>2024-09-10T01:25:20-07:00</time>
</trkpt>
<trkpt lat="59.4177" lon="18.02576">
<ele>58</ele>
<time>2024-09-10T01:25:21-07:00</time>
</trkpt>
<trkpt lat="59.41766" lon="18.0255">
<ele>58</ele>
<time>2024-09-10T01:25:22-07:00</time>
</trkpt>
<trkpt lat="59.41765" lon="18.0253">
<ele>58</ele>
<time>2024-09-10T01:25:23-07:00</time>
</trkpt>
<trkpt lat="59.4177" lon="18.02509">
<ele>57</ele>
<time>2024-09-10T01:25:24-07:00</time>
</trkpt>
<trkpt lat="59.41774" lon="18.02482">
<ele>57</ele>
<time>2024-09-10T01:25:25-07:00</time>
</trkpt>
<trkpt lat="59.41776" lon="18.02443">
<ele>56</ele>
<time>2024-09-10T01:25:26-07:00</time>
</trkpt>
<trkpt lat="59.41775" lon="18.02414">
<ele>55</ele>
<time>2024-09-10T01:25:27-07:00</time>
</trkpt>
<trkpt lat="59.41778" lon="18.02379">
<ele>55</ele>
<time>2024-09-10T01:25:28-07:00</time>
</trkpt>
<trkpt lat="59.41778" lon="18.02346">
<ele>56</ele>
<time>2024-09-10T01:25:29-07:00</time>
</trkpt>
<trkpt lat="59.41778" lon="18.02313">
<ele>56</ele>
<time>2024-09-10T01:25:30-07:00</time>
</trkpt>
<trkpt lat="59.41775" lon="18.02282">
<ele>57</ele>
<time>2024-09-10T01:25:31-07:00</time>
</trkpt>
<trkpt lat="59.41768" lon="18.02247">
<ele>56</ele>
<time>2024-09-10T01:25:32-07:00</time>
</trkpt>
<trkpt lat="59.41756" lon="18.0221">
<ele>55</ele>
<time>2024-09-10T01:25:33-07:00</time>
</trkpt>
<trkpt lat="59.41741" lon="18.02179">
<ele>55</ele>
<time>2024-09-10T01:25:34-07:00</time>
</trkpt>
<trkpt lat="59.41732" lon="18.02168">
<ele>54</ele>
<time>2024-09-10T01:25:35-07:00</time>
</trkpt>
<trkpt lat="59.41719" lon="18.02163">
<ele>54</ele>
<time>2024-09-10T01:25:36-07:00</time>
</trkpt>
<trkpt lat="59.41708" lon="18.02168">
<ele>52</ele>
<time>2024-09-10T01:25:37-07:00</time>
</trkpt>
<trkpt lat="59.4169" lon="18.02177">
<ele>52</ele>
<time>2024-09-10T01:25:38-07:00</time>
</trkpt>
<trkpt lat="59.41672" lon="18.02144">
<ele>50</ele>
<time>2024-09-10T01:25:39-07:00</time>
</trkpt>
<trkpt lat="59.41649" lon="18.02112">
<ele>45</ele>
<time>2024-09-10T01:25:40-07:00</time>
</trkpt>
<trkpt lat="59.4163" lon="18.02077">
<ele>46</ele>
<time>2024-09-10T01:25:41-07:00</time>
</trkpt>
<trkpt lat="59.41623" lon="18.02054">
<ele>42</ele>
<time>2024-09-10T01:25:42-07:00</time>
</trkpt>
</trkseg>
</trk>
</gpx>
